sensor_id;sensor_type;location;lat;lon;timestamp;temperature;humidity
3156;DHT22;1588;50.892;7.082;2023-04-24T00:04:00;11.30;99.90
3156;DHT22;1588;50.892;7.082;2023-04-24T00:09:04;11.30;99.90
3156;DHT22;1588;50.892;7.082;2023-04-24T00:14:07;11.30;99.90
3156;DHT22;1588;50.892;7.082;2023-04-24T00:19:10;11.20;99.90
3156;DHT22;1588;50.892;7.082;2023-04-24T00:24:13;11.20;99.90
3156;DHT22;1588;50.892;7.082;2023-04-24T00:29:20;11.30;99.90
3156;DHT22;1588;50.892;7.082;2023-04-24T00:34:24;11.30;99.90
3156;DHT22;1588;50.892;7.082;2023-04-24T00:39:26;11.20;99.90
3156;DHT22;1588;50.892;7.082;2023-04-24T00:44:28;11.20;99.90
3156;DHT22;1588;50.892;7.082;2023-04-24T00:49:32;11.10;99.90
3156;DHT22;1588;50.892;7.082;2023-04-24T00:54:34;11.00;99.90
3156;DHT22;1588;50.892;7.082;2023-04-24T00:59:37;11.10;99.90
3156;DHT22;1588;50.892;7.082;2023-04-24T01:04:43;11.10;99.90
3156;DHT22;1588;50.892;7.082;2023-04-24T01:09:45;11.10;99.90
3156;DHT22;1588;50.892;7.082;2023-04-24T01:14:50;11.10;99.90
3156;DHT22;1588;50.892;7.082;2023-04-24T01:19:53;11.10;99.90
3156;DHT22;1588;50.892;7.082;2023-04-24T01:24:59;11.10;99.90
3156;DHT22;1588;50.892;7.082;2023-04-24T01:30:01;11.20;99.90
3156;DHT22;1588;50.892;7.082;2023-04-24T01:35:05;11.20;99.90
3156;DHT22;1588;50.892;7.082;2023-04-24T01:40:09;11.20;99.90
3156;DHT22;1588;50.892;7.082;2023-04-24T01:45:12;11.20;99.90
3156;DHT22;1588;50.892;7.082;2023-04-24T01:50:14;11.20;99.90
3156;DHT22;1588;50.892;7.082;2023-04-24T01:55:19;11.20;99.90
3156;DHT22;1588;50.892;7.082;2023-04-24T02:00:23;11.10;99.90
3156;DHT22;1588;50.892;7.082;2023-04-24T02:05:44;11.00;99.90
3156;DHT22;1588;50.892;7.082;2023-04-24T02:10:48;10.90;99.90
3156;DHT22;1588;50.892;7.082;2023-04-24T02:15:50;10.70;99.90
3156;DHT22;1588;50.892;7.082;2023-04-24T02:20:53;10.70;99.90
3156;DHT22;1588;50.892;7.082;2023-04-24T02:25:58;10.60;99.90
3156;DHT22;1588;50.892;7.082;2023-04-24T02:31:00;10.50;99.90
3156;DHT22;1588;50.892;7.082;2023-04-24T02:36:03;10.30;99.90
3156;DHT22;1588;50.892;7.082;2023-04-24T02:41:08;10.20;99.90
3156;DHT22;1588;50.892;7.082;2023-04-24T02:46:10;10.00;99.90
3156;DHT22;1588;50.892;7.082;2023-04-24T02:51:14;9.90;99.90
3156;DHT22;1588;50.892;7.082;2023-04-24T02:56:18;9.80;99.90
3156;DHT22;1588;50.892;7.082;2023-04-24T03:01:20;9.70;99.90
3156;DHT22;1588;50.892;7.082;2023-04-24T03:06:23;9.80;99.90
3156;DHT22;1588;50.892;7.082;2023-04-24T03:11:27;9.80;99.90
3156;DHT22;1588;50.892;7.082;2023-04-24T03:16:30;9.90;99.90
3156;DHT22;1588;50.892;7.082;2023-04-24T03:21:34;9.90;99.90
3156;DHT22;1588;50.892;7.082;2023-04-24T03:26:47;9.90;99.90
3156;DHT22;1588;50.892;7.082;2023-04-24T03:31:49;9.80;99.90
3156;DHT22;1588;50.892;7.082;2023-04-24T03:36:52;9.70;99.90
3156;DHT22;1588;50.892;7.082;2023-04-24T03:41:55;9.60;99.90
3156;DHT22;1588;50.892;7.082;2023-04-24T03:46:58;9.40;99.90
3156;DHT22;1588;50.892;7.082;2023-04-24T03:52:00;9.30;99.90
3156;DHT22;1588;50.892;7.082;2023-04-24T03:57:03;9.20;99.90
3156;DHT22;1588;50.892;7.082;2023-04-24T04:02:06;9.10;99.90
3156;DHT22;1588;50.892;7.082;2023-04-24T04:07:08;9.00;99.90
3156;DHT22;1588;50.892;7.082;2023-04-24T04:12:12;9.00;99.90
3156;DHT22;1588;50.892;7.082;2023-04-24T04:17:14;8.90;99.90
3156;DHT22;1588;50.892;7.082;2023-04-24T04:22:17;9.10;99.90
3156;DHT22;1588;50.892;7.082;2023-04-24T04:27:23;9.10;99.90
3156;DHT22;1588;50.892;7.082;2023-04-24T04:32:25;9.10;99.90
3156;DHT22;1588;50.892;7.082;2023-04-24T04:37:28;9.20;99.90
3156;DHT22;1588;50.892;7.082;2023-04-24T04:42:31;9.20;99.90
3156;DHT22;1588;50.892;7.082;2023-04-24T04:47:35;9.30;99.90
3156;DHT22;1588;50.892;7.082;2023-04-24T04:52:37;9.20;99.90
3156;DHT22;1588;50.892;7.082;2023-04-24T04:57:41;9.20;99.90
3156;DHT22;1588;50.892;7.082;2023-04-24T05:02:44;9.30;99.90
3156;DHT22;1588;50.892;7.082;2023-04-24T05:07:46;9.30;99.90
3156;DHT22;1588;50.892;7.082;2023-04-24T05:12:50;9.30;99.90
3156;DHT22;1588;50.892;7.082;2023-04-24T05:17:52;9.30;99.90
3156;DHT22;1588;50.892;7.082;2023-04-24T05:22:54;9.30;99.90
3156;DHT22;1588;50.892;7.082;2023-04-24T05:27:58;9.30;99.90
3156;DHT22;1588;50.892;7.082;2023-04-24T05:33:03;9.30;99.90
3156;DHT22;1588;50.892;7.082;2023-04-24T05:38:05;9.40;99.90
3156;DHT22;1588;50.892;7.082;2023-04-24T05:43:09;9.30;99.90
3156;DHT22;1588;50.892;7.082;2023-04-24T05:48:11;9.30;99.90
3156;DHT22;1588;50.892;7.082;2023-04-24T05:53:14;9.30;99.90
3156;DHT22;1588;50.892;7.082;2023-04-24T05:58:17;9.30;99.90
3156;DHT22;1588;50.892;7.082;2023-04-24T06:03:23;9.30;99.90
3156;DHT22;1588;50.892;7.082;2023-04-24T06:08:25;9.30;99.90
3156;DHT22;1588;50.892;7.082;2023-04-24T06:13:28;9.40;99.90
3156;DHT22;1588;50.892;7.082;2023-04-24T06:18:31;9.50;99.90
3156;DHT22;1588;50.892;7.082;2023-04-24T06:23:33;9.50;99.90
3156;DHT22;1588;50.892;7.082;2023-04-24T06:28:37;9.50;99.90
3156;DHT22;1588;50.892;7.082;2023-04-24T06:33:39;9.60;99.90
3156;DHT22;1588;50.892;7.082;2023-04-24T06:38:42;9.50;99.90
3156;DHT22;1588;50.892;7.082;2023-04-24T06:43:46;9.40;99.90
3156;DHT22;1588;50.892;7.082;2023-04-24T06:48:49;9.30;99.90
3156;DHT22;1588;50.892;7.082;2023-04-24T06:53:52;9.30;99.90
3156;DHT22;1588;50.892;7.082;2023-04-24T06:58:58;9.10;99.90
3156;DHT22;1588;50.892;7.082;2023-04-24T07:04:01;9.00;99.90
3156;DHT22;1588;50.892;7.082;2023-04-24T07:09:03;8.90;99.90
3156;DHT22;1588;50.892;7.082;2023-04-24T07:14:06;9.00;99.90
3156;DHT22;1588;50.892;7.082;2023-04-24T07:19:09;9.00;99.90
3156;DHT22;1588;50.892;7.082;2023-04-24T07:24:14;9.00;99.90
3156;DHT22;1588;50.892;7.082;2023-04-24T07:29:18;8.90;99.90
3156;DHT22;1588;50.892;7.082;2023-04-24T07:34:20;8.90;99.90
3156;DHT22;1588;50.892;7.082;2023-04-24T07:39:23;8.80;99.90
3156;DHT22;1588;50.892;7.082;2023-04-24T07:44:27;8.80;99.90
3156;DHT22;1588;50.892;7.082;2023-04-24T07:49:29;8.80;99.90
3156;DHT22;1588;50.892;7.082;2023-04-24T07:54:31;8.80;99.90
3156;DHT22;1588;50.892;7.082;2023-04-24T07:59:35;8.70;99.90
3156;DHT22;1588;50.892;7.082;2023-04-24T08:04:37;8.60;99.90
3156;DHT22;1588;50.892;7.082;2023-04-24T08:09:39;8.30;99.90
3156;DHT22;1588;50.892;7.082;2023-04-24T08:14:43;8.30;99.90
3156;DHT22;1588;50.892;7.082;2023-04-24T08:19:45;8.10;99.90
3156;DHT22;1588;50.892;7.082;2023-04-24T08:24:49;8.10;99.90
3156;DHT22;1588;50.892;7.082;2023-04-24T08:29:53;8.00;99.90
3156;DHT22;1588;50.892;7.082;2023-04-24T08:34:59;7.90;99.90
3156;DHT22;1588;50.892;7.082;2023-04-24T08:40:01;7.60;99.90
3156;DHT22;1588;50.892;7.082;2023-04-24T08:45:06;7.40;99.90
3156;DHT22;1588;50.892;7.082;2023-04-24T08:50:10;7.20;99.90
3156;DHT22;1588;50.892;7.082;2023-04-24T08:55:16;7.20;99.90
3156;DHT22;1588;50.892;7.082;2023-04-24T09:00:21;7.20;99.90
3156;DHT22;1588;50.892;7.082;2023-04-24T09:05:23;7.30;99.90
3156;DHT22;1588;50.892;7.082;2023-04-24T09:10:26;7.30;99.90
3156;DHT22;1588;50.892;7.082;2023-04-24T09:15:32;7.20;99.90
3156;DHT22;1588;50.892;7.082;2023-04-24T09:20:35;7.30;99.90
3156;DHT22;1588;50.892;7.082;2023-04-24T09:25:58;7.40;99.90
3156;DHT22;1588;50.892;7.082;2023-04-24T09:31:04;7.40;99.90
3156;DHT22;1588;50.892;7.082;2023-04-24T09:36:08;7.50;99.90
3156;DHT22;1588;50.892;7.082;2023-04-24T09:41:13;7.70;99.90
3156;DHT22;1588;50.892;7.082;2023-04-24T09:46:18;7.90;99.90
3156;DHT22;1588;50.892;7.082;2023-04-24T09:51:33;7.80;99.90
3156;DHT22;1588;50.892;7.082;2023-04-24T09:56:42;7.90;99.90
3156;DHT22;1588;50.892;7.082;2023-04-24T10:01:49;8.10;99.90
3156;DHT22;1588;50.892;7.082;2023-04-24T10:07:03;8.20;99.90
3156;DHT22;1588;50.892;7.082;2023-04-24T10:12:07;8.50;99.90
3156;DHT22;1588;50.892;7.082;2023-04-24T10:17:12;8.70;99.90
3156;DHT22;1588;50.892;7.082;2023-04-24T10:22:15;9.00;99.90
3156;DHT22;1588;50.892;7.082;2023-04-24T10:27:22;9.00;99.90
3156;DHT22;1588;50.892;7.082;2023-04-24T10:32:26;9.00;99.90
3156;DHT22;1588;50.892;7.082;2023-04-24T10:37:29;9.30;99.90
3156;DHT22;1588;50.892;7.082;2023-04-24T10:42:40;9.20;99.90
3156;DHT22;1588;50.892;7.082;2023-04-24T10:47:51;9.10;99.90
3156;DHT22;1588;50.892;7.082;2023-04-24T10:53:07;9.20;99.90
3156;DHT22;1588;50.892;7.082;2023-04-24T10:58:10;9.50;99.90
3156;DHT22;1588;50.892;7.082;2023-04-24T11:03:25;9.60;99.90
3156;DHT22;1588;50.892;7.082;2023-04-24T11:08:30;9.90;99.90
3156;DHT22;1588;50.892;7.082;2023-04-24T11:18:59;10.50;99.90
3156;DHT22;1588;50.892;7.082;2023-04-24T11:24:27;10.60;99.90
3156;DHT22;1588;50.892;7.082;2023-04-24T11:29:44;10.30;99.90
3156;DHT22;1588;50.892;7.082;2023-04-24T11:34:57;10.30;99.90
3156;DHT22;1588;50.892;7.082;2023-04-24T11:39:59;10.20;99.90
3156;DHT22;1588;50.892;7.082;2023-04-24T11:45:08;10.10;99.90
3156;DHT22;1588;50.892;7.082;2023-04-24T11:50:14;10.00;99.90
3156;DHT22;1588;50.892;7.082;2023-04-24T11:55:27;9.90;99.90
3156;DHT22;1588;50.892;7.082;2023-04-24T12:00:32;9.80;99.90
3156;DHT22;1588;50.892;7.082;2023-04-24T12:05:38;10.30;99.90
3156;DHT22;1588;50.892;7.082;2023-04-24T12:10:41;10.90;99.90
3156;DHT22;1588;50.892;7.082;2023-04-24T12:15:43;11.10;99.90
3156;DHT22;1588;50.892;7.082;2023-04-24T12:20:48;11.30;99.90
3156;DHT22;1588;50.892;7.082;2023-04-24T12:25:51;11.70;99.90
3156;DHT22;1588;50.892;7.082;2023-04-24T12:30:54;11.70;99.90
3156;DHT22;1588;50.892;7.082;2023-04-24T12:35:59;11.60;99.90
3156;DHT22;1588;50.892;7.082;2023-04-24T12:41:03;11.50;99.90
3156;DHT22;1588;50.892;7.082;2023-04-24T12:46:06;11.20;99.90
3156;DHT22;1588;50.892;7.082;2023-04-24T12:51:15;11.10;99.90
3156;DHT22;1588;50.892;7.082;2023-04-24T12:56:17;11.40;99.90
3156;DHT22;1588;50.892;7.082;2023-04-24T13:01:21;12.60;99.90
3156;DHT22;1588;50.892;7.082;2023-04-24T13:06:25;12.60;99.90
3156;DHT22;1588;50.892;7.082;2023-04-24T13:11:28;12.70;99.90
3156;DHT22;1588;50.892;7.082;2023-04-24T13:16:31;12.50;99.90
3156;DHT22;1588;50.892;7.082;2023-04-24T13:21:36;12.80;99.90
3156;DHT22;1588;50.892;7.082;2023-04-24T13:26:39;12.70;99.90
3156;DHT22;1588;50.892;7.082;2023-04-24T13:31:46;12.80;99.90
3156;DHT22;1588;50.892;7.082;2023-04-24T13:36:56;12.50;99.90
3156;DHT22;1588;50.892;7.082;2023-04-24T13:42:15;12.50;99.90
3156;DHT22;1588;50.892;7.082;2023-04-24T13:47:39;12.70;99.90
3156;DHT22;1588;50.892;7.082;2023-04-24T13:53:06;12.70;99.90
3156;DHT22;1588;50.892;7.082;2023-04-24T13:58:23;12.90;99.90
3156;DHT22;1588;50.892;7.082;2023-04-24T14:03:37;13.40;99.90
3156;DHT22;1588;50.892;7.082;2023-04-24T14:08:41;12.90;99.90
3156;DHT22;1588;50.892;7.082;2023-04-24T14:14:03;12.40;99.90
3156;DHT22;1588;50.892;7.082;2023-04-24T14:19:35;12.10;99.90
3156;DHT22;1588;50.892;7.082;2023-04-24T14:24:53;12.70;99.90
3156;DHT22;1588;50.892;7.082;2023-04-24T14:30:45;13.00;99.90
3156;DHT22;1588;50.892;7.082;2023-04-24T14:35:48;13.00;99.90
3156;DHT22;1588;50.892;7.082;2023-04-24T14:40:55;13.20;99.90
3156;DHT22;1588;50.892;7.082;2023-04-24T14:46:02;13.60;99.90
3156;DHT22;1588;50.892;7.082;2023-04-24T14:51:05;14.00;99.90
3156;DHT22;1588;50.892;7.082;2023-04-24T14:56:09;14.30;99.90
3156;DHT22;1588;50.892;7.082;2023-04-24T15:01:12;14.20;99.90
3156;DHT22;1588;50.892;7.082;2023-04-24T15:06:15;14.40;99.90
3156;DHT22;1588;50.892;7.082;2023-04-24T15:11:19;14.70;99.90
3156;DHT22;1588;50.892;7.082;2023-04-24T15:16:27;14.30;99.90
3156;DHT22;1588;50.892;7.082;2023-04-24T15:21:30;14.00;99.90
3156;DHT22;1588;50.892;7.082;2023-04-24T15:26:34;13.60;99.90
3156;DHT22;1588;50.892;7.082;2023-04-24T15:31:37;13.10;99.90
3156;DHT22;1588;50.892;7.082;2023-04-24T15:36:41;12.90;99.90
3156;DHT22;1588;50.892;7.082;2023-04-24T15:41:45;13.10;99.90
3156;DHT22;1588;50.892;7.082;2023-04-24T15:47:11;13.60;99.90
3156;DHT22;1588;50.892;7.082;2023-04-24T15:52:39;13.60;99.90
3156;DHT22;1588;50.892;7.082;2023-04-24T15:57:43;13.50;99.90
3156;DHT22;1588;50.892;7.082;2023-04-24T16:02:46;13.30;99.90
3156;DHT22;1588;50.892;7.082;2023-04-24T16:07:50;13.00;99.90
3156;DHT22;1588;50.892;7.082;2023-04-24T16:12:56;12.90;99.90
3156;DHT22;1588;50.892;7.082;2023-04-24T16:18:01;12.70;99.90
3156;DHT22;1588;50.892;7.082;2023-04-24T16:23:04;12.70;99.90
3156;DHT22;1588;50.892;7.082;2023-04-24T16:28:09;12.60;99.90
3156;DHT22;1588;50.892;7.082;2023-04-24T16:33:12;12.40;99.90
3156;DHT22;1588;50.892;7.082;2023-04-24T16:38:18;12.40;99.90
3156;DHT22;1588;50.892;7.082;2023-04-24T16:43:22;12.20;99.90
3156;DHT22;1588;50.892;7.082;2023-04-24T16:48:31;12.20;99.90
3156;DHT22;1588;50.892;7.082;2023-04-24T16:53:44;12.30;99.90
3156;DHT22;1588;50.892;7.082;2023-04-24T16:58:57;12.30;99.90
3156;DHT22;1588;50.892;7.082;2023-04-24T17:04:05;12.20;99.90
3156;DHT22;1588;50.892;7.082;2023-04-24T17:09:12;12.00;99.90
3156;DHT22;1588;50.892;7.082;2023-04-24T17:14:17;12.00;99.90
3156;DHT22;1588;50.892;7.082;2023-04-24T17:19:20;11.90;99.90
3156;DHT22;1588;50.892;7.082;2023-04-24T17:24:23;12.00;99.90
3156;DHT22;1588;50.892;7.082;2023-04-24T17:29:47;11.90;99.90
3156;DHT22;1588;50.892;7.082;2023-04-24T17:34:50;11.80;99.90
3156;DHT22;1588;50.892;7.082;2023-04-24T17:39:57;11.80;99.90
3156;DHT22;1588;50.892;7.082;2023-04-24T17:45:02;11.70;99.90
3156;DHT22;1588;50.892;7.082;2023-04-24T17:50:09;11.60;99.90
3156;DHT22;1588;50.892;7.082;2023-04-24T17:55:11;11.70;99.90
3156;DHT22;1588;50.892;7.082;2023-04-24T18:00:18;11.60;99.90
3156;DHT22;1588;50.892;7.082;2023-04-24T18:05:20;11.50;99.90
3156;DHT22;1588;50.892;7.082;2023-04-24T18:10:24;11.40;99.90
3156;DHT22;1588;50.892;7.082;2023-04-24T18:15:29;11.40;99.90
3156;DHT22;1588;50.892;7.082;2023-04-24T18:20:32;11.40;99.90
3156;DHT22;1588;50.892;7.082;2023-04-24T18:25:37;11.30;99.90
3156;DHT22;1588;50.892;7.082;2023-04-24T18:30:45;11.30;99.90
3156;DHT22;1588;50.892;7.082;2023-04-24T18:35:51;11.10;99.90
3156;DHT22;1588;50.892;7.082;2023-04-24T18:40:55;11.00;99.90
3156;DHT22;1588;50.892;7.082;2023-04-24T18:46:08;11.00;99.90
3156;DHT22;1588;50.892;7.082;2023-04-24T18:51:11;10.80;99.90
3156;DHT22;1588;50.892;7.082;2023-04-24T18:56:20;10.70;99.90
3156;DHT22;1588;50.892;7.082;2023-04-24T19:01:27;10.70;99.90
3156;DHT22;1588;50.892;7.082;2023-04-24T19:06:35;10.60;99.90
3156;DHT22;1588;50.892;7.082;2023-04-24T19:11:38;10.50;99.90
3156;DHT22;1588;50.892;7.082;2023-04-24T19:16:43;10.30;99.90
3156;DHT22;1588;50.892;7.082;2023-04-24T19:21:46;10.20;99.90
3156;DHT22;1588;50.892;7.082;2023-04-24T19:26:50;10.00;99.90
3156;DHT22;1588;50.892;7.082;2023-04-24T19:31:56;10.00;99.90
3156;DHT22;1588;50.892;7.082;2023-04-24T19:36:59;9.90;99.90
3156;DHT22;1588;50.892;7.082;2023-04-24T19:42:08;9.80;99.90
3156;DHT22;1588;50.892;7.082;2023-04-24T19:47:14;9.80;99.90
3156;DHT22;1588;50.892;7.082;2023-04-24T19:52:19;9.70;99.90
3156;DHT22;1588;50.892;7.082;2023-04-24T19:57:21;9.70;99.90
3156;DHT22;1588;50.892;7.082;2023-04-24T20:02:26;9.70;99.90
3156;DHT22;1588;50.892;7.082;2023-04-24T20:07:37;9.70;99.90
3156;DHT22;1588;50.892;7.082;2023-04-24T20:12:46;9.70;99.90
3156;DHT22;1588;50.892;7.082;2023-04-24T20:18:10;9.60;99.90
3156;DHT22;1588;50.892;7.082;2023-04-24T20:23:14;9.60;99.90
3156;DHT22;1588;50.892;7.082;2023-04-24T20:28:49;9.60;99.90
3156;DHT22;1588;50.892;7.082;2023-04-24T20:34:05;9.60;99.90
3156;DHT22;1588;50.892;7.082;2023-04-24T20:39:22;9.50;99.90
3156;DHT22;1588;50.892;7.082;2023-04-24T20:44:26;9.40;99.90
3156;DHT22;1588;50.892;7.082;2023-04-24T20:49:37;9.30;99.90
3156;DHT22;1588;50.892;7.082;2023-04-24T20:54:46;9.30;99.90
3156;DHT22;1588;50.892;7.082;2023-04-24T20:59:52;9.20;99.90
3156;DHT22;1588;50.892;7.082;2023-04-24T21:05:32;9.10;99.90
3156;DHT22;1588;50.892;7.082;2023-04-24T21:11:31;8.90;99.90
3156;DHT22;1588;50.892;7.082;2023-04-24T21:17:02;8.80;99.90
3156;DHT22;1588;50.892;7.082;2023-04-24T21:22:25;8.70;99.90
3156;DHT22;1588;50.892;7.082;2023-04-24T21:33:21;8.60;99.90
3156;DHT22;1588;50.892;7.082;2023-04-24T21:38:25;8.50;99.90
3156;DHT22;1588;50.892;7.082;2023-04-24T21:43:28;8.40;99.90
3156;DHT22;1588;50.892;7.082;2023-04-24T21:48:30;8.20;99.90
3156;DHT22;1588;50.892;7.082;2023-04-24T21:53:35;8.00;99.90
3156;DHT22;1588;50.892;7.082;2023-04-24T21:58:47;7.90;99.90
3156;DHT22;1588;50.892;7.082;2023-04-24T22:03:49;7.80;99.90
3156;DHT22;1588;50.892;7.082;2023-04-24T22:08:57;7.70;99.90
3156;DHT22;1588;50.892;7.082;2023-04-24T22:14:00;7.60;99.90
3156;DHT22;1588;50.892;7.082;2023-04-24T22:19:05;7.50;99.90
3156;DHT22;1588;50.892;7.082;2023-04-24T22:24:11;7.40;99.90
3156;DHT22;1588;50.892;7.082;2023-04-24T22:29:15;7.40;99.90
3156;DHT22;1588;50.892;7.082;2023-04-24T22:34:18;7.30;99.90
3156;DHT22;1588;50.892;7.082;2023-04-24T22:39:22;7.10;99.90
3156;DHT22;1588;50.892;7.082;2023-04-24T22:44:26;7.00;99.90
3156;DHT22;1588;50.892;7.082;2023-04-24T22:49:29;6.90;99.90
3156;DHT22;1588;50.892;7.082;2023-04-24T22:54:33;7.00;99.90
3156;DHT22;1588;50.892;7.082;2023-04-24T22:59:36;7.10;99.90
3156;DHT22;1588;50.892;7.082;2023-04-24T23:04:39;7.10;99.90
3156;DHT22;1588;50.892;7.082;2023-04-24T23:09:43;7.20;99.90
3156;DHT22;1588;50.892;7.082;2023-04-24T23:14:45;7.20;99.90
3156;DHT22;1588;50.892;7.082;2023-04-24T23:19:48;7.20;99.90
3156;DHT22;1588;50.892;7.082;2023-04-24T23:24:52;7.40;99.90
3156;DHT22;1588;50.892;7.082;2023-04-24T23:29:57;7.70;99.90
3156;DHT22;1588;50.892;7.082;2023-04-24T23:34:59;7.70;99.90
3156;DHT22;1588;50.892;7.082;2023-04-24T23:40:07;7.70;99.90
3156;DHT22;1588;50.892;7.082;2023-04-24T23:45:10;7.70;99.90
3156;DHT22;1588;50.892;7.082;2023-04-24T23:50:13;7.70;99.90
3156;DHT22;1588;50.892;7.082;2023-04-24T23:55:19;7.70;99.90
